sensor_id;sensor_type;location;lat;lon;timestamp;temperature;humidity
5848;DHT22;8756;49.29324300;8.70599800;2023-04-24T00:00:10;11.60;99.90
5848;DHT22;8756;49.29324300;8.70599800;2023-04-24T00:02:40;11.60;99.90
5848;DHT22;8756;49.29324300;8.70599800;2023-04-24T00:05:13;11.60;99.90
5848;DHT22;8756;49.29324300;8.70599800;2023-04-24T00:07:40;11.60;99.90
5848;DHT22;8756;49.29324300;8.70599800;2023-04-24T00:10:07;11.60;99.90
5848;DHT22;8756;49.29324300;8.70599800;2023-04-24T00:12:33;11.60;99.90
5848;DHT22;8756;49.29324300;8.70599800;2023-04-24T00:14:59;11.60;99.90
5848;DHT22;8756;49.29324300;8.70599800;2023-04-24T00:17:26;11.60;99.90
5848;DHT22;8756;49.29324300;8.70599800;2023-04-24T00:19:51;11.60;99.90
5848;DHT22;8756;49.29324300;8.70599800;2023-04-24T00:22:26;11.60;99.90
5848;DHT22;8756;49.29324300;8.70599800;2023-04-24T00:24:53;11.60;99.90
5848;DHT22;8756;49.29324300;8.70599800;2023-04-24T00:27:19;11.60;99.90
5848;DHT22;8756;49.29324300;8.70599800;2023-04-24T00:29:45;11.60;99.90
5848;DHT22;8756;49.29324300;8.70599800;2023-04-24T00:32:11;11.60;99.90
5848;DHT22;8756;49.29324300;8.70599800;2023-04-24T00:34:37;11.60;99.90
5848;DHT22;8756;49.29324300;8.70599800;2023-04-24T00:37:02;11.60;99.90
5848;DHT22;8756;49.29324300;8.70599800;2023-04-24T00:39:28;11.60;99.90
5848;DHT22;8756;49.29324300;8.70599800;2023-04-24T00:41:54;11.60;99.90
5848;DHT22;8756;49.29324300;8.70599800;2023-04-24T00:44:20;11.60;99.90
5848;DHT22;8756;49.29324300;8.70599800;2023-04-24T00:46:46;11.60;99.90
5848;DHT22;8756;49.29324300;8.70599800;2023-04-24T00:49:18;11.60;99.90
5848;DHT22;8756;49.29324300;8.70599800;2023-04-24T00:51:44;11.60;99.90
5848;DHT22;8756;49.29324300;8.70599800;2023-04-24T00:54:12;11.60;99.90
5848;DHT22;8756;49.29324300;8.70599800;2023-04-24T00:56:38;11.60;99.90
5848;DHT22;8756;49.29324300;8.70599800;2023-04-24T00:59:05;11.60;99.90
5848;DHT22;8756;49.29324300;8.70599800;2023-04-24T01:01:31;11.60;99.90
5848;DHT22;8756;49.29324300;8.70599800;2023-04-24T01:03:58;11.60;99.90
5848;DHT22;8756;49.29324300;8.70599800;2023-04-24T01:06:28;11.60;99.90
5848;DHT22;8756;49.29324300;8.70599800;2023-04-24T01:08:54;11.60;99.90
5848;DHT22;8756;49.29324300;8.70599800;2023-04-24T01:11:24;11.60;99.90
5848;DHT22;8756;49.29324300;8.70599800;2023-04-24T01:13:51;11.60;99.90
5848;DHT22;8756;49.29324300;8.70599800;2023-04-24T01:16:17;11.60;99.90
5848;DHT22;8756;49.29324300;8.70599800;2023-04-24T01:18:45;11.60;99.90
5848;DHT22;8756;49.29324300;8.70599800;2023-04-24T01:21:13;11.60;99.90
5848;DHT22;8756;49.29324300;8.70599800;2023-04-24T01:23:43;11.60;99.90
5848;DHT22;8756;49.29324300;8.70599800;2023-04-24T01:26:09;11.60;99.90
5848;DHT22;8756;49.29324300;8.70599800;2023-04-24T01:28:35;11.60;99.90
5848;DHT22;8756;49.29324300;8.70599800;2023-04-24T01:31:01;11.50;99.90
5848;DHT22;8756;49.29324300;8.70599800;2023-04-24T01:33:27;11.60;99.90
5848;DHT22;8756;49.29324300;8.70599800;2023-04-24T01:35:52;11.50;99.90
5848;DHT22;8756;49.29324300;8.70599800;2023-04-24T01:38:19;11.50;99.90
5848;DHT22;8756;49.29324300;8.70599800;2023-04-24T01:40:45;11.50;99.90
5848;DHT22;8756;49.29324300;8.70599800;2023-04-24T01:43:11;11.50;99.90
5848;DHT22;8756;49.29324300;8.70599800;2023-04-24T01:45:37;11.50;99.90
5848;DHT22;8756;49.29324300;8.70599800;2023-04-24T01:48:03;11.50;99.90
5848;DHT22;8756;49.29324300;8.70599800;2023-04-24T01:50:29;11.50;99.90
5848;DHT22;8756;49.29324300;8.70599800;2023-04-24T01:52:55;11.50;99.90
5848;DHT22;8756;49.29324300;8.70599800;2023-04-24T01:55:21;11.50;99.90
5848;DHT22;8756;49.29324300;8.70599800;2023-04-24T01:57:47;11.50;99.90
5848;DHT22;8756;49.29324300;8.70599800;2023-04-24T02:00:13;11.50;99.90
5848;DHT22;8756;49.29324300;8.70599800;2023-04-24T02:02:40;11.50;99.90
5848;DHT22;8756;49.29324300;8.70599800;2023-04-24T02:05:07;11.50;99.90
5848;DHT22;8756;49.29324300;8.70599800;2023-04-24T02:07:33;11.50;99.90
5848;DHT22;8756;49.29324300;8.70599800;2023-04-24T02:09:59;11.50;99.90
5848;DHT22;8756;49.29324300;8.70599800;2023-04-24T02:12:25;11.50;99.90
5848;DHT22;8756;49.29324300;8.70599800;2023-04-24T02:14:50;11.50;99.90
5848;DHT22;8756;49.29324300;8.70599800;2023-04-24T02:17:16;11.50;99.90
5848;DHT22;8756;49.29324300;8.70599800;2023-04-24T02:19:42;11.50;99.90
5848;DHT22;8756;49.29324300;8.70599800;2023-04-24T02:22:08;11.50;99.90
5848;DHT22;8756;49.29324300;8.70599800;2023-04-24T02:24:34;11.50;99.90
5848;DHT22;8756;49.29324300;8.70599800;2023-04-24T02:26:59;11.50;99.90
5848;DHT22;8756;49.29324300;8.70599800;2023-04-24T02:29:25;11.50;99.90
5848;DHT22;8756;49.29324300;8.70599800;2023-04-24T02:31:51;11.40;99.90
5848;DHT22;8756;49.29324300;8.70599800;2023-04-24T02:34:17;11.40;99.90
5848;DHT22;8756;49.29324300;8.70599800;2023-04-24T02:36:42;11.40;99.90
5848;DHT22;8756;49.29324300;8.70599800;2023-04-24T02:39:08;11.40;99.90
5848;DHT22;8756;49.29324300;8.70599800;2023-04-24T02:41:34;11.40;99.90
5848;DHT22;8756;49.29324300;8.70599800;2023-04-24T02:43:59;11.40;99.90
5848;DHT22;8756;49.29324300;8.70599800;2023-04-24T02:46:25;11.40;99.90
5848;DHT22;8756;49.29324300;8.70599800;2023-04-24T02:48:51;11.40;99.90
5848;DHT22;8756;49.29324300;8.70599800;2023-04-24T02:51:17;11.40;99.90
5848;DHT22;8756;49.29324300;8.70599800;2023-04-24T02:53:43;11.40;99.90
5848;DHT22;8756;49.29324300;8.70599800;2023-04-24T02:56:08;11.40;99.90
5848;DHT22;8756;49.29324300;8.70599800;2023-04-24T02:58:34;11.30;99.90
5848;DHT22;8756;49.29324300;8.70599800;2023-04-24T03:01:00;11.30;99.90
5848;DHT22;8756;49.29324300;8.70599800;2023-04-24T03:03:26;11.30;99.90
5848;DHT22;8756;49.29324300;8.70599800;2023-04-24T03:05:52;11.30;99.90
5848;DHT22;8756;49.29324300;8.70599800;2023-04-24T03:08:17;11.30;99.90
5848;DHT22;8756;49.29324300;8.70599800;2023-04-24T03:10:43;11.30;99.90
5848;DHT22;8756;49.29324300;8.70599800;2023-04-24T03:13:09;11.30;99.90
5848;DHT22;8756;49.29324300;8.70599800;2023-04-24T03:15:35;11.30;99.90
5848;DHT22;8756;49.29324300;8.70599800;2023-04-24T03:18:00;11.30;99.90
5848;DHT22;8756;49.29324300;8.70599800;2023-04-24T03:20:27;11.30;99.90
5848;DHT22;8756;49.29324300;8.70599800;2023-04-24T03:22:56;11.30;99.90
5848;DHT22;8756;49.29324300;8.70599800;2023-04-24T03:25:22;11.30;99.90
5848;DHT22;8756;49.29324300;8.70599800;2023-04-24T03:27:48;11.30;99.90
5848;DHT22;8756;49.29324300;8.70599800;2023-04-24T03:30:13;11.20;99.90
5848;DHT22;8756;49.29324300;8.70599800;2023-04-24T03:32:39;11.10;99.90
5848;DHT22;8756;49.29324300;8.70599800;2023-04-24T03:35:06;11.00;99.90
5848;DHT22;8756;49.29324300;8.70599800;2023-04-24T03:37:33;10.90;99.90
5848;DHT22;8756;49.29324300;8.70599800;2023-04-24T03:39:59;10.90;99.90
5848;DHT22;8756;49.29324300;8.70599800;2023-04-24T03:42:25;10.80;99.90
5848;DHT22;8756;49.29324300;8.70599800;2023-04-24T03:44:51;10.80;99.90
5848;DHT22;8756;49.29324300;8.70599800;2023-04-24T03:47:16;10.80;99.90
5848;DHT22;8756;49.29324300;8.70599800;2023-04-24T03:49:42;10.80;99.90
5848;DHT22;8756;49.29324300;8.70599800;2023-04-24T03:52:08;10.80;99.90
5848;DHT22;8756;49.29324300;8.70599800;2023-04-24T03:54:33;10.80;99.90
5848;DHT22;8756;49.29324300;8.70599800;2023-04-24T03:56:59;10.80;99.90
5848;DHT22;8756;49.29324300;8.70599800;2023-04-24T03:59:25;10.80;99.90
5848;DHT22;8756;49.29324300;8.70599800;2023-04-24T04:01:51;10.80;99.90
5848;DHT22;8756;49.29324300;8.70599800;2023-04-24T04:04:16;10.80;99.90
5848;DHT22;8756;49.29324300;8.70599800;2023-04-24T04:06:43;10.80;99.90
5848;DHT22;8756;49.29324300;8.70599800;2023-04-24T04:09:09;10.70;99.90
5848;DHT22;8756;49.29324300;8.70599800;2023-04-24T04:11:36;10.70;99.90
5848;DHT22;8756;49.29324300;8.70599800;2023-04-24T04:14:01;10.70;99.90
5848;DHT22;8756;49.29324300;8.70599800;2023-04-24T04:16:27;10.70;99.90
5848;DHT22;8756;49.29324300;8.70599800;2023-04-24T04:18:53;10.70;99.90
5848;DHT22;8756;49.29324300;8.70599800;2023-04-24T04:21:18;10.60;99.90
5848;DHT22;8756;49.29324300;8.70599800;2023-04-24T04:23:44;10.60;99.90
5848;DHT22;8756;49.29324300;8.70599800;2023-04-24T04:26:11;10.60;99.90
5848;DHT22;8756;49.29324300;8.70599800;2023-04-24T04:28:38;10.60;99.90
5848;DHT22;8756;49.29324300;8.70599800;2023-04-24T04:31:04;10.50;99.90
5848;DHT22;8756;49.29324300;8.70599800;2023-04-24T04:33:30;10.50;99.90
5848;DHT22;8756;49.29324300;8.70599800;2023-04-24T04:35:56;10.50;99.90
5848;DHT22;8756;49.29324300;8.70599800;2023-04-24T04:38:22;10.50;99.90
5848;DHT22;8756;49.29324300;8.70599800;2023-04-24T04:40:48;10.40;99.90
5848;DHT22;8756;49.29324300;8.70599800;2023-04-24T04:43:14;10.40;99.90
5848;DHT22;8756;49.29324300;8.70599800;2023-04-24T04:45:43;10.30;99.90
5848;DHT22;8756;49.29324300;8.70599800;2023-04-24T04:48:09;10.30;99.90
5848;DHT22;8756;49.29324300;8.70599800;2023-04-24T04:50:38;10.20;99.90
5848;DHT22;8756;49.29324300;8.70599800;2023-04-24T04:53:04;10.20;99.90
5848;DHT22;8756;49.29324300;8.70599800;2023-04-24T04:55:30;10.20;99.90
5848;DHT22;8756;49.29324300;8.70599800;2023-04-24T04:57:56;10.20;99.90
5848;DHT22;8756;49.29324300;8.70599800;2023-04-24T05:00:22;10.10;99.90
5848;DHT22;8756;49.29324300;8.70599800;2023-04-24T05:02:51;10.10;99.90
5848;DHT22;8756;49.29324300;8.70599800;2023-04-24T05:05:17;10.10;99.90
5848;DHT22;8756;49.29324300;8.70599800;2023-04-24T05:07:43;10.00;99.90
5848;DHT22;8756;49.29324300;8.70599800;2023-04-24T05:10:09;10.00;99.90
5848;DHT22;8756;49.29324300;8.70599800;2023-04-24T05:12:35;10.00;99.90
5848;DHT22;8756;49.29324300;8.70599800;2023-04-24T05:15:02;10.00;99.90
5848;DHT22;8756;49.29324300;8.70599800;2023-04-24T05:17:28;10.00;99.90
5848;DHT22;8756;49.29324300;8.70599800;2023-04-24T05:19:54;10.00;99.90
5848;DHT22;8756;49.29324300;8.70599800;2023-04-24T05:22:19;10.00;99.90
5848;DHT22;8756;49.29324300;8.70599800;2023-04-24T05:24:46;10.00;99.90
5848;DHT22;8756;49.29324300;8.70599800;2023-04-24T05:27:13;10.00;99.90
5848;DHT22;8756;49.29324300;8.70599800;2023-04-24T05:29:39;9.90;99.90
5848;DHT22;8756;49.29324300;8.70599800;2023-04-24T05:32:05;10.00;99.90
5848;DHT22;8756;49.29324300;8.70599800;2023-04-24T05:34:32;10.00;99.90
5848;DHT22;8756;49.29324300;8.70599800;2023-04-24T05:36:58;10.00;99.90
5848;DHT22;8756;49.29324300;8.70599800;2023-04-24T05:39:23;10.00;99.90
5848;DHT22;8756;49.29324300;8.70599800;2023-04-24T05:41:50;10.00;99.90
5848;DHT22;8756;49.29324300;8.70599800;2023-04-24T05:44:16;10.00;99.90
5848;DHT22;8756;49.29324300;8.70599800;2023-04-24T05:46:42;10.10;99.90
5848;DHT22;8756;49.29324300;8.70599800;2023-04-24T05:49:07;10.10;99.90
5848;DHT22;8756;49.29324300;8.70599800;2023-04-24T05:51:33;10.20;99.90
5848;DHT22;8756;49.29324300;8.70599800;2023-04-24T05:53:59;10.20;99.90
5848;DHT22;8756;49.29324300;8.70599800;2023-04-24T05:56:25;10.30;99.90
5848;DHT22;8756;49.29324300;8.70599800;2023-04-24T05:58:51;10.30;99.90
5848;DHT22;8756;49.29324300;8.70599800;2023-04-24T06:01:16;10.30;99.90
5848;DHT22;8756;49.29324300;8.70599800;2023-04-24T06:03:42;10.40;99.90
5848;DHT22;8756;49.29324300;8.70599800;2023-04-24T06:06:08;10.40;99.90
5848;DHT22;8756;49.29324300;8.70599800;2023-04-24T06:08:34;10.40;99.90
5848;DHT22;8756;49.29324300;8.70599800;2023-04-24T06:11:08;10.40;99.90
5848;DHT22;8756;49.29324300;8.70599800;2023-04-24T06:13:33;10.50;99.90
5848;DHT22;8756;49.29324300;8.70599800;2023-04-24T06:15:59;10.50;99.90
5848;DHT22;8756;49.29324300;8.70599800;2023-04-24T06:18:25;10.60;99.90
5848;DHT22;8756;49.29324300;8.70599800;2023-04-24T06:20:50;10.60;99.90
5848;DHT22;8756;49.29324300;8.70599800;2023-04-24T06:23:17;10.60;99.90
5848;DHT22;8756;49.29324300;8.70599800;2023-04-24T06:25:42;10.60;99.90
5848;DHT22;8756;49.29324300;8.70599800;2023-04-24T06:28:08;10.60;99.90
5848;DHT22;8756;49.29324300;8.70599800;2023-04-24T06:30:34;10.70;99.90
5848;DHT22;8756;49.29324300;8.70599800;2023-04-24T06:32:59;10.60;99.90
5848;DHT22;8756;49.29324300;8.70599800;2023-04-24T06:35:25;10.60;99.90
5848;DHT22;8756;49.29324300;8.70599800;2023-04-24T06:37:51;10.60;99.90
5848;DHT22;8756;49.29324300;8.70599800;2023-04-24T06:40:17;10.60;99.90
5848;DHT22;8756;49.29324300;8.70599800;2023-04-24T06:42:44;10.60;99.90
5848;DHT22;8756;49.29324300;8.70599800;2023-04-24T06:45:09;10.60;99.90
5848;DHT22;8756;49.29324300;8.70599800;2023-04-24T06:47:36;10.60;99.90
5848;DHT22;8756;49.29324300;8.70599800;2023-04-24T06:50:01;10.70;99.90
5848;DHT22;8756;49.29324300;8.70599800;2023-04-24T06:52:27;10.70;99.90
5848;DHT22;8756;49.29324300;8.70599800;2023-04-24T06:55:00;10.70;99.90
5848;DHT22;8756;49.29324300;8.70599800;2023-04-24T06:57:31;10.70;99.90
5848;DHT22;8756;49.29324300;8.70599800;2023-04-24T06:59:56;10.70;99.90
5848;DHT22;8756;49.29324300;8.70599800;2023-04-24T07:02:22;10.70;99.90
5848;DHT22;8756;49.29324300;8.70599800;2023-04-24T07:04:48;10.70;99.90
5848;DHT22;8756;49.29324300;8.70599800;2023-04-24T07:07:14;10.70;99.90
5848;DHT22;8756;49.29324300;8.70599800;2023-04-24T07:09:40;10.80;99.90
5848;DHT22;8756;49.29324300;8.70599800;2023-04-24T07:12:09;10.80;99.90
5848;DHT22;8756;49.29324300;8.70599800;2023-04-24T07:14:36;10.80;99.90
5848;DHT22;8756;49.29324300;8.70599800;2023-04-24T07:17:05;10.80;99.90
5848;DHT22;8756;49.29324300;8.70599800;2023-04-24T07:19:33;10.80;99.90
5848;DHT22;8756;49.29324300;8.70599800;2023-04-24T07:21:59;10.80;99.90
5848;DHT22;8756;49.29324300;8.70599800;2023-04-24T07:24:25;10.80;99.90
5848;DHT22;8756;49.29324300;8.70599800;2023-04-24T07:26:52;10.80;99.90
5848;DHT22;8756;49.29324300;8.70599800;2023-04-24T07:29:18;10.80;99.90
5848;DHT22;8756;49.29324300;8.70599800;2023-04-24T07:31:44;10.70;99.90
5848;DHT22;8756;49.29324300;8.70599800;2023-04-24T07:34:09;10.70;99.90
5848;DHT22;8756;49.29324300;8.70599800;2023-04-24T07:36:36;10.50;99.90
5848;DHT22;8756;49.29324300;8.70599800;2023-04-24T07:39:04;10.30;99.90
5848;DHT22;8756;49.29324300;8.70599800;2023-04-24T07:41:30;10.20;99.90
5848;DHT22;8756;49.29324300;8.70599800;2023-04-24T07:43:55;10.10;99.90
5848;DHT22;8756;49.29324300;8.70599800;2023-04-24T07:46:21;10.00;99.90
5848;DHT22;8756;49.29324300;8.70599800;2023-04-24T07:48:47;9.90;99.90
5848;DHT22;8756;49.29324300;8.70599800;2023-04-24T07:51:14;9.90;99.90
5848;DHT22;8756;49.29324300;8.70599800;2023-04-24T07:53:41;9.90;99.90
5848;DHT22;8756;49.29324300;8.70599800;2023-04-24T07:56:08;9.90;99.90
5848;DHT22;8756;49.29324300;8.70599800;2023-04-24T07:58:34;9.80;99.90
5848;DHT22;8756;49.29324300;8.70599800;2023-04-24T08:01:00;9.80;99.90
5848;DHT22;8756;49.29324300;8.70599800;2023-04-24T08:03:25;9.80;99.90
5848;DHT22;8756;49.29324300;8.70599800;2023-04-24T08:05:51;9.80;99.90
5848;DHT22;8756;49.29324300;8.70599800;2023-04-24T08:08:18;9.90;99.90
5848;DHT22;8756;49.29324300;8.70599800;2023-04-24T08:10:46;10.00;99.90
5848;DHT22;8756;49.29324300;8.70599800;2023-04-24T08:13:12;10.00;99.90
5848;DHT22;8756;49.29324300;8.70599800;2023-04-24T08:15:37;10.10;99.90
5848;DHT22;8756;49.29324300;8.70599800;2023-04-24T08:18:03;10.10;99.90
5848;DHT22;8756;49.29324300;8.70599800;2023-04-24T08:20:29;10.20;99.90
5848;DHT22;8756;49.29324300;8.70599800;2023-04-24T08:22:54;10.20;99.90
5848;DHT22;8756;49.29324300;8.70599800;2023-04-24T08:25:20;10.30;99.90
5848;DHT22;8756;49.29324300;8.70599800;2023-04-24T08:27:48;10.50;99.90
5848;DHT22;8756;49.29324300;8.70599800;2023-04-24T08:30:14;10.60;99.90
5848;DHT22;8756;49.29324300;8.70599800;2023-04-24T08:32:40;10.70;99.90
5848;DHT22;8756;49.29324300;8.70599800;2023-04-24T08:35:06;10.80;99.90
5848;DHT22;8756;49.29324300;8.70599800;2023-04-24T08:37:34;10.90;99.90
5848;DHT22;8756;49.29324300;8.70599800;2023-04-24T08:40:02;11.00;99.90
5848;DHT22;8756;49.29324300;8.70599800;2023-04-24T08:42:45;11.20;99.90
5848;DHT22;8756;49.29324300;8.70599800;2023-04-24T08:45:11;11.20;99.90
5848;DHT22;8756;49.29324300;8.70599800;2023-04-24T08:47:39;11.30;99.90
5848;DHT22;8756;49.29324300;8.70599800;2023-04-24T08:50:06;11.20;99.90
5848;DHT22;8756;49.29324300;8.70599800;2023-04-24T08:52:33;11.20;99.90
5848;DHT22;8756;49.29324300;8.70599800;2023-04-24T08:55:03;11.10;99.90
5848;DHT22;8756;49.29324300;8.70599800;2023-04-24T08:57:29;11.10;99.90
5848;DHT22;8756;49.29324300;8.70599800;2023-04-24T08:59:56;11.10;99.90
5848;DHT22;8756;49.29324300;8.70599800;2023-04-24T09:02:23;11.10;99.90
5848;DHT22;8756;49.29324300;8.70599800;2023-04-24T09:04:49;11.10;99.90
5848;DHT22;8756;49.29324300;8.70599800;2023-04-24T09:07:16;11.10;99.90
5848;DHT22;8756;49.29324300;8.70599800;2023-04-24T09:09:43;11.20;99.90
5848;DHT22;8756;49.29324300;8.70599800;2023-04-24T09:12:09;11.20;99.90
5848;DHT22;8756;49.29324300;8.70599800;2023-04-24T09:14:36;11.30;99.90
5848;DHT22;8756;49.29324300;8.70599800;2023-04-24T09:17:05;11.40;99.90
5848;DHT22;8756;49.29324300;8.70599800;2023-04-24T09:19:31;11.40;99.90
5848;DHT22;8756;49.29324300;8.70599800;2023-04-24T09:21:57;11.50;99.90
5848;DHT22;8756;49.29324300;8.70599800;2023-04-24T09:24:23;11.40;99.90
5848;DHT22;8756;49.29324300;8.70599800;2023-04-24T09:26:55;11.40;99.90
5848;DHT22;8756;49.29324300;8.70599800;2023-04-24T09:29:26;11.30;99.90
5848;DHT22;8756;49.29324300;8.70599800;2023-04-24T09:31:52;11.30;99.90
5848;DHT22;8756;49.29324300;8.70599800;2023-04-24T09:34:27;11.20;99.90
5848;DHT22;8756;49.29324300;8.70599800;2023-04-24T09:36:53;11.20;99.90
5848;DHT22;8756;49.29324300;8.70599800;2023-04-24T09:39:19;11.30;99.90
5848;DHT22;8756;49.29324300;8.70599800;2023-04-24T09:41:50;11.20;99.90
5848;DHT22;8756;49.29324300;8.70599800;2023-04-24T09:44:22;11.30;99.90
5848;DHT22;8756;49.29324300;8.70599800;2023-04-24T09:51:51;11.30;99.90
5848;DHT22;8756;49.29324300;8.70599800;2023-04-24T09:54:20;11.30;99.90
5848;DHT22;8756;49.29324300;8.70599800;2023-04-24T09:56:48;11.30;99.90
5848;DHT22;8756;49.29324300;8.70599800;2023-04-24T09:59:16;11.40;99.90
5848;DHT22;8756;49.29324300;8.70599800;2023-04-24T10:01:43;11.40;99.90
5848;DHT22;8756;49.29324300;8.70599800;2023-04-24T10:04:21;11.50;99.90
5848;DHT22;8756;49.29324300;8.70599800;2023-04-24T10:06:49;11.60;99.90
5848;DHT22;8756;49.29324300;8.70599800;2023-04-24T10:09:18;11.60;99.90
5848;DHT22;8756;49.29324300;8.70599800;2023-04-24T10:11:47;11.60;99.90
5848;DHT22;8756;49.29324300;8.70599800;2023-04-24T10:14:22;11.70;99.90
5848;DHT22;8756;49.29324300;8.70599800;2023-04-24T10:16:52;11.70;99.90
5848;DHT22;8756;49.29324300;8.70599800;2023-04-24T10:19:19;11.70;99.90
5848;DHT22;8756;49.29324300;8.70599800;2023-04-24T10:21:45;11.60;99.90
5848;DHT22;8756;49.29324300;8.70599800;2023-04-24T10:24:18;11.60;99.90
5848;DHT22;8756;49.29324300;8.70599800;2023-04-24T10:26:47;11.60;99.90
5848;DHT22;8756;49.29324300;8.70599800;2023-04-24T10:29:16;11.50;99.90
5848;DHT22;8756;49.29324300;8.70599800;2023-04-24T10:31:43;11.50;99.90
5848;DHT22;8756;49.29324300;8.70599800;2023-04-24T10:34:12;11.40;99.90
5848;DHT22;8756;49.29324300;8.70599800;2023-04-24T10:36:43;11.40;99.90
5848;DHT22;8756;49.29324300;8.70599800;2023-04-24T10:39:13;11.30;99.90
5848;DHT22;8756;49.29324300;8.70599800;2023-04-24T10:41:40;11.30;99.90
5848;DHT22;8756;49.29324300;8.70599800;2023-04-24T10:44:14;11.20;99.90
5848;DHT22;8756;49.29324300;8.70599800;2023-04-24T10:46:45;11.20;99.90
5848;DHT22;8756;49.29324300;8.70599800;2023-04-24T10:49:12;11.10;99.90
5848;DHT22;8756;49.29324300;8.70599800;2023-04-24T10:51:52;11.00;99.90
5848;DHT22;8756;49.29324300;8.70599800;2023-04-24T10:54:33;11.00;99.90
5848;DHT22;8756;49.29324300;8.70599800;2023-04-24T10:59:46;10.80;99.90
5848;DHT22;8756;49.29324300;8.70599800;2023-04-24T11:02:17;10.80;99.90
5848;DHT22;8756;49.29324300;8.70599800;2023-04-24T11:04:44;10.90;99.90
5848;DHT22;8756;49.29324300;8.70599800;2023-04-24T11:07:10;10.90;99.90
5848;DHT22;8756;49.29324300;8.70599800;2023-04-24T11:09:37;11.00;99.90
5848;DHT22;8756;49.29324300;8.70599800;2023-04-24T11:12:10;11.10;99.90
5848;DHT22;8756;49.29324300;8.70599800;2023-04-24T11:20:04;11.70;99.90
5848;DHT22;8756;49.29324300;8.70599800;2023-04-24T11:22:34;11.90;99.90
5848;DHT22;8756;49.29324300;8.70599800;2023-04-24T11:25:02;12.00;99.90
5848;DHT22;8756;49.29324300;8.70599800;2023-04-24T11:27:39;12.10;99.90
5848;DHT22;8756;49.29324300;8.70599800;2023-04-24T11:30:10;12.20;99.90
5848;DHT22;8756;49.29324300;8.70599800;2023-04-24T11:32:38;12.20;99.90
5848;DHT22;8756;49.29324300;8.70599800;2023-04-24T11:35:13;12.20;99.90
5848;DHT22;8756;49.29324300;8.70599800;2023-04-24T11:37:48;12.10;99.90
5848;DHT22;8756;49.29324300;8.70599800;2023-04-24T11:40:16;12.00;99.90
5848;DHT22;8756;49.29324300;8.70599800;2023-04-24T11:42:44;11.90;99.90
5848;DHT22;8756;49.29324300;8.70599800;2023-04-24T11:45:22;11.90;99.90
5848;DHT22;8756;49.29324300;8.70599800;2023-04-24T11:47:49;12.00;99.90
5848;DHT22;8756;49.29324300;8.70599800;2023-04-24T11:50:18;12.00;99.90
5848;DHT22;8756;49.29324300;8.70599800;2023-04-24T11:52:46;12.10;99.90
5848;DHT22;8756;49.29324300;8.70599800;2023-04-24T11:57:49;12.20;99.90
5848;DHT22;8756;49.29324300;8.70599800;2023-04-24T12:00:20;12.30;99.90
5848;DHT22;8756;49.29324300;8.70599800;2023-04-24T12:02:48;12.30;99.90
5848;DHT22;8756;49.29324300;8.70599800;2023-04-24T12:05:25;12.30;99.90
5848;DHT22;8756;49.29324300;8.70599800;2023-04-24T12:07:52;12.30;99.90
5848;DHT22;8756;49.29324300;8.70599800;2023-04-24T12:10:23;12.20;99.90
5848;DHT22;8756;49.29324300;8.70599800;2023-04-24T12:12:50;12.20;99.90
5848;DHT22;8756;49.29324300;8.70599800;2023-04-24T12:15:18;12.10;99.90
5848;DHT22;8756;49.29324300;8.70599800;2023-04-24T12:17:45;12.00;99.90
5848;DHT22;8756;49.29324300;8.70599800;2023-04-24T12:20:12;11.90;99.90
5848;DHT22;8756;49.29324300;8.70599800;2023-04-24T12:22:58;12.00;99.90
5848;DHT22;8756;49.29324300;8.70599800;2023-04-24T12:25:30;12.00;99.90
5848;DHT22;8756;49.29324300;8.70599800;2023-04-24T12:30:29;12.00;99.90
5848;DHT22;8756;49.29324300;8.70599800;2023-04-24T12:32:58;12.00;99.90
5848;DHT22;8756;49.29324300;8.70599800;2023-04-24T12:35:30;12.00;99.90
5848;DHT22;8756;49.29324300;8.70599800;2023-04-24T12:38:08;12.00;99.90
5848;DHT22;8756;49.29324300;8.70599800;2023-04-24T12:40:35;12.10;99.90
5848;DHT22;8756;49.29324300;8.70599800;2023-04-24T12:43:01;12.10;99.90
5848;DHT22;8756;49.29324300;8.70599800;2023-04-24T12:45:27;12.10;99.90
5848;DHT22;8756;49.29324300;8.70599800;2023-04-24T12:47:53;12.20;99.90
5848;DHT22;8756;49.29324300;8.70599800;2023-04-24T12:50:19;12.10;99.90
5848;DHT22;8756;49.29324300;8.70599800;2023-04-24T12:52:44;12.10;99.90
5848;DHT22;8756;49.29324300;8.70599800;2023-04-24T12:55:10;12.10;99.90
5848;DHT22;8756;49.29324300;8.70599800;2023-04-24T12:57:39;12.10;99.90
5848;DHT22;8756;49.29324300;8.70599800;2023-04-24T13:00:06;12.10;99.90
5848;DHT22;8756;49.29324300;8.70599800;2023-04-24T13:02:33;12.10;99.90
5848;DHT22;8756;49.29324300;8.70599800;2023-04-24T13:04:59;12.20;99.90
5848;DHT22;8756;49.29324300;8.70599800;2023-04-24T13:07:26;12.20;99.90
5848;DHT22;8756;49.29324300;8.70599800;2023-04-24T13:09:54;12.20;99.90
5848;DHT22;8756;49.29324300;8.70599800;2023-04-24T13:12:20;12.20;99.90
5848;DHT22;8756;49.29324300;8.70599800;2023-04-24T13:14:46;12.30;99.90
5848;DHT22;8756;49.29324300;8.70599800;2023-04-24T13:17:12;12.40;99.90
5848;DHT22;8756;49.29324300;8.70599800;2023-04-24T13:19:42;12.50;99.90
5848;DHT22;8756;49.29324300;8.70599800;2023-04-24T13:22:12;12.50;99.90
5848;DHT22;8756;49.29324300;8.70599800;2023-04-24T13:24:38;12.70;99.90
5848;DHT22;8756;49.29324300;8.70599800;2023-04-24T13:27:08;12.80;99.90
5848;DHT22;8756;49.29324300;8.70599800;2023-04-24T13:29:34;12.90;99.90
5848;DHT22;8756;49.29324300;8.70599800;2023-04-24T13:32:00;13.00;99.90
5848;DHT22;8756;49.29324300;8.70599800;2023-04-24T13:34:27;13.00;99.90
5848;DHT22;8756;49.29324300;8.70599800;2023-04-24T13:36:54;13.10;99.90
5848;DHT22;8756;49.29324300;8.70599800;2023-04-24T13:39:21;13.10;99.90
5848;DHT22;8756;49.29324300;8.70599800;2023-04-24T13:41:47;13.10;99.90
5848;DHT22;8756;49.29324300;8.70599800;2023-04-24T13:44:14;13.10;99.90
5848;DHT22;8756;49.29324300;8.70599800;2023-04-24T13:46:41;13.20;99.90
5848;DHT22;8756;49.29324300;8.70599800;2023-04-24T13:49:08;13.20;99.90
5848;DHT22;8756;49.29324300;8.70599800;2023-04-24T13:51:34;13.20;99.90
5848;DHT22;8756;49.29324300;8.70599800;2023-04-24T13:54:00;13.20;99.90
5848;DHT22;8756;49.29324300;8.70599800;2023-04-24T13:56:26;13.20;99.90
5848;DHT22;8756;49.29324300;8.70599800;2023-04-24T13:58:52;13.30;99.90
5848;DHT22;8756;49.29324300;8.70599800;2023-04-24T14:01:19;13.30;99.90
5848;DHT22;8756;49.29324300;8.70599800;2023-04-24T14:03:49;13.40;99.90